Time;durP1;ratioP1;P1;durP2;ratioP2;P2;SDS_P1;SDS_P2;PMS_P1;PMS_P2;Temp;Humidity;BMP_temperature;BMP_pressure;BME280_temperature;BME280_humidity;BME280_pressure;Samples;Min_cycle;Max_cycle;Signal;HPM_P1;HPM_P2
2022/02/08 00:01:43;;;;;;;4.60;2.30;;;5.10;99.90;;;;;;5073989;28;20193;-56
2022/02/08 00:04:11;;;;;;;6.75;2.08;;;5.00;99.90;;;;;;5074494;28;20181;-57
2022/02/08 00:06:43;;;;;;;3.22;1.48;;;5.00;99.70;;;;;;5073274;28;20232;-56
2022/02/08 00:09:11;;;;;;;2.78;1.33;;;5.00;99.40;;;;;;5073516;28;20195;-56
2022/02/08 00:11:39;;;;;;;4.10;2.05;;;5.00;99.20;;;;;;5073285;28;20291;-55
2022/02/08 00:14:06;;;;;;;5.32;2.33;;;5.00;99.20;;;;;;5073434;28;20540;-58
2022/02/08 00:16:34;;;;;;;5.50;1.88;;;5.00;98.90;;;;;;5074013;28;20227;-56
2022/02/08 00:19:01;;;;;;;7.15;1.85;;;5.00;98.70;;;;;;5074134;28;20668;-56
2022/02/08 00:21:29;;;;;;;6.50;2.10;;;5.00;98.70;;;;;;5073441;28;20204;-56
2022/02/08 00:23:56;;;;;;;4.00;1.80;;;5.00;98.60;;;;;;5073230;28;20200;-56
2022/02/08 00:26:24;;;;;;;8.07;2.05;;;5.00;98.50;;;;;;5077079;28;20229;-55
2022/02/08 00:28:51;;;;;;;7.72;2.22;;;5.00;98.40;;;;;;5077364;28;20205;-54
2022/02/08 00:31:18;;;;;;;7.30;2.25;;;5.00;98.60;;;;;;5077253;28;20207;-54
2022/02/08 00:33:46;;;;;;;4.70;1.77;;;5.00;98.60;;;;;;5076773;28;20224;-54
2022/02/08 00:36:13;;;;;;;8.48;2.15;;;5.00;98.80;;;;;;5076982;28;20220;-55
2022/02/08 00:38:41;;;;;;;3.42;1.80;;;5.00;98.90;;;;;;5076578;28;20196;-55
2022/02/08 00:41:09;;;;;;;6.70;2.17;;;5.00;99.00;;;;;;5076901;28;20204;-55
2022/02/08 00:43:44;;;;;;;6.20;2.33;;;5.00;99.20;;;;;;5076768;28;20196;-55
2022/02/08 00:46:16;;;;;;;6.95;2.20;;;5.00;99.30;;;;;;5076822;28;20229;-56
2022/02/08 00:48:53;;;;;;;4.47;1.90;;;5.00;99.50;;;;;;5076735;28;20185;-56
2022/02/08 00:51:21;;;;;;;6.13;2.10;;;5.00;99.70;;;;;;5076939;28;20242;-54
2022/02/08 00:53:49;;;;;;;3.63;1.52;;;5.00;99.90;;;;;;5077015;28;20225;-55
2022/02/08 00:56:16;;;;;;;3.83;1.80;;;5.10;99.90;;;;;;5076331;28;20727;-56
2022/02/08 00:58:43;;;;;;;7.97;2.10;;;5.10;99.90;;;;;;5076694;28;20215;-55
2022/02/08 01:01:11;;;;;;;7.97;2.10;;;5.10;99.90;;;;;;5076523;28;20201;-56
2022/02/08 01:03:38;;;;;;;9.50;3.33;;;5.10;99.90;;;;;;5076610;28;20194;-56
2022/02/08 01:06:06;;;;;;;11.00;2.10;;;5.10;99.90;;;;;;5076364;28;20229;-56
2022/02/08 01:08:36;;;;;;;9.23;3.65;;;5.10;99.90;;;;;;5076413;28;20213;-56
2022/02/08 01:11:06;;;;;;;4.97;2.30;;;5.10;99.90;;;;;;5076359;28;20197;-55
2022/02/08 01:13:33;;;;;;;7.63;2.22;;;5.10;99.90;;;;;;5076234;28;20220;-55
2022/02/08 01:16:00;;;;;;;4.70;2.85;;;5.10;99.90;;;;;;5076123;28;20560;-55
2022/02/08 01:18:29;;;;;;;4.10;2.45;;;5.10;99.90;;;;;;5076372;28;20201;-56
2022/02/08 01:20:56;;;;;;;6.80;2.97;;;5.10;99.90;;;;;;5076231;28;20626;-55
2022/02/08 01:23:23;;;;;;;6.05;2.80;;;5.10;99.90;;;;;;5076381;28;20209;-55
2022/02/08 01:25:54;;;;;;;4.72;2.55;;;5.10;99.90;;;;;;5076877;28;20608;-55
2022/02/08 01:28:31;;;;;;;4.93;2.45;;;5.10;99.90;;;;;;5077913;28;20200;-55
2022/02/08 01:31:01;;;;;;;5.47;2.90;;;5.10;99.90;;;;;;5077673;28;20192;-56
2022/02/08 01:34:05;;;;;;;7.93;2.80;;;5.10;99.90;;;;;;5076321;28;20185;-56
2022/02/08 01:37:01;;;;;;;6.78;2.60;;;5.20;99.90;;;;;;5074791;28;20304;-55
2022/02/08 01:39:37;;;;;;;7.32;3.17;;;5.20;99.90;;;;;;5075762;28;20201;-53
2022/02/08 01:45:00;;;;;;;8.07;2.80;;;5.20;99.90;;;;;;5066605;28;20280;-56
2022/02/08 01:47:30;;;;;;;5.35;2.83;;;5.30;99.90;;;;;;5075675;28;20193;-56
2022/02/08 01:50:10;;;;;;;6.00;2.97;;;5.30;99.90;;;;;;5075662;28;20193;-55
2022/02/08 01:52:38;;;;;;;3.88;2.75;;;5.30;99.90;;;;;;5075194;28;20185;-56
2022/02/08 01:55:07;;;;;;;8.43;3.03;;;5.40;99.90;;;;;;5074981;28;20659;-56
2022/02/08 01:57:34;;;;;;;7.63;2.70;;;5.40;99.90;;;;;;5075353;28;20209;-56
2022/02/08 02:00:05;;;;;;;6.97;3.25;;;5.40;99.90;;;;;;5075254;28;20208;-55
2022/02/08 02:02:32;;;;;;;5.20;3.50;;;5.50;99.90;;;;;;5075270;28;20204;-57
2022/02/08 02:04:59;;;;;;;13.57;4.63;;;5.50;99.90;;;;;;5075443;28;20679;-56
2022/02/08 02:07:27;;;;;;;8.23;4.00;;;5.60;99.90;;;;;;5074922;28;20687;-56
2022/02/08 02:09:54;;;;;;;9.88;4.45;;;5.60;99.90;;;;;;5074876;28;20311;-56
2022/02/08 02:12:21;;;;;;;7.18;4.97;;;5.60;99.90;;;;;;5075278;28;20201;-56
2022/02/08 02:14:50;;;;;;;14.02;6.15;;;5.60;99.90;;;;;;5076224;28;20220;-56
2022/02/08 02:17:19;;;;;;;10.23;5.07;;;5.70;99.90;;;;;;5076204;28;20221;-56
2022/02/08 02:19:46;;;;;;;11.98;5.57;;;5.70;99.90;;;;;;5075670;28;20200;-56
2022/02/08 02:22:14;;;;;;;14.82;6.00;;;5.70;99.90;;;;;;5075029;28;20216;-56
2022/02/08 02:24:43;;;;;;;12.95;5.80;;;5.70;99.90;;;;;;5074921;28;20197;-56
2022/02/08 02:27:11;;;;;;;10.45;5.68;;;5.80;99.90;;;;;;5074403;28;20232;-57
2022/02/08 02:29:38;;;;;;;11.32;5.15;;;5.80;99.90;;;;;;5074948;28;20201;-56
2022/02/08 02:32:06;;;;;;;10.32;5.50;;;5.80;99.90;;;;;;5074770;28;20205;-56
2022/02/08 02:34:33;;;;;;;14.52;7.05;;;5.80;99.90;;;;;;5074667;28;20229;-55
2022/02/08 02:37:00;;;;;;;14.38;5.53;;;5.90;99.90;;;;;;5074276;28;20221;-55
2022/02/08 02:39:28;;;;;;;17.70;5.85;;;5.90;99.90;;;;;;5074253;28;20207;-56
2022/02/08 02:41:57;;;;;;;8.38;5.50;;;5.90;99.90;;;;;;5074652;28;20205;-55
2022/02/08 02:44:24;;;;;;;12.35;5.28;;;5.90;99.90;;;;;;5074661;28;20214;-56
2022/02/08 02:46:52;;;;;;;10.23;5.93;;;6.00;99.90;;;;;;5074251;28;20701;-56
2022/02/08 02:49:20;;;;;;;11.10;5.32;;;6.00;99.90;;;;;;5074473;28;20219;-56
2022/02/08 02:51:47;;;;;;;13.65;6.72;;;6.00;99.90;;;;;;5074671;28;20699;-56
2022/02/08 02:54:16;;;;;;;11.75;6.00;;;6.00;99.90;;;;;;5074282;28;20225;-55
2022/02/08 02:56:44;;;;;;;13.13;6.25;;;6.00;99.90;;;;;;5074292;28;20221;-55
2022/02/08 02:59:13;;;;;;;9.77;6.25;;;6.00;99.90;;;;;;5074222;28;20201;-54
2022/02/08 03:01:58;;;;;;;12.32;6.82;;;6.00;99.90;;;;;;5074519;28;20205;-55
2022/02/08 03:04:33;;;;;;;14.57;6.75;;;5.90;99.90;;;;;;5074554;28;20706;-55
2022/02/08 03:18:29;;;;;;;12.20;5.90;;;5.90;99.90;;;;;;5074710;28;20184;-54
2022/02/08 03:20:56;;;;;;;8.20;5.70;;;5.90;99.90;;;;;;5074551;28;20204;-55
2022/02/08 03:23:23;;;;;;;14.27;6.68;;;5.90;99.90;;;;;;5074913;28;20208;-56
2022/02/08 03:25:50;;;;;;;12.23;6.95;;;5.90;99.90;;;;;;5074930;28;20614;-55
2022/02/08 03:28:17;;;;;;;14.77;7.45;;;5.90;99.90;;;;;;5075298;28;20673;-55
2022/02/08 03:30:46;;;;;;;17.33;7.18;;;5.90;99.90;;;;;;5078030;28;20224;-55
2022/02/08 03:33:13;;;;;;;9.88;5.95;;;5.90;99.90;;;;;;5076993;28;20556;-54
2022/02/08 03:35:40;;;;;;;13.52;6.38;;;5.90;99.90;;;;;;5077508;28;20221;-55
2022/02/08 03:38:09;;;;;;;11.45;6.65;;;5.90;99.90;;;;;;5075272;28;20200;-54
2022/02/08 03:40:40;;;;;;;11.93;6.78;;;5.90;99.90;;;;;;5074450;28;20295;-54
2022/02/08 03:43:27;;;;;;;10.32;6.10;;;5.90;99.90;;;;;;5073970;28;20185;-55
2022/02/08 03:45:58;;;;;;;13.07;6.45;;;5.90;99.90;;;;;;5073677;28;20605;-55
2022/02/08 03:48:27;;;;;;;11.32;7.30;;;5.90;99.90;;;;;;5074051;28;20196;-55
2022/02/08 03:50:57;;;;;;;8.52;6.60;;;5.90;99.90;;;;;;5075059;28;20197;-54
2022/02/08 03:53:26;;;;;;;10.20;7.32;;;5.90;99.90;;;;;;5074771;28;20212;-55
2022/02/08 03:55:53;;;;;;;11.07;6.80;;;5.90;99.90;;;;;;5074554;28;20229;-55
2022/02/08 03:58:20;;;;;;;11.02;6.60;;;5.90;99.90;;;;;;5073785;28;20579;-53
2022/02/08 04:01:02;;;;;;;11.02;8.40;;;5.90;99.90;;;;;;5072592;28;20208;-54
2022/02/08 04:03:33;;;;;;;9.20;6.93;;;5.90;99.90;;;;;;5073587;28;20196;-55
2022/02/08 04:09:18;;;;;;;11.00;7.00;;;5.90;99.90;;;;;;5106959;27;1387107;-56
2022/02/08 04:11:55;;;;;;;15.15;7.95;;;6.00;99.90;;;;;;5131738;28;20449;-55
2022/02/08 04:14:30;;;;;;;9.40;7.35;;;6.00;99.90;;;;;;5131498;28;20187;-55
2022/02/08 04:17:04;;;;;;;13.00;8.15;;;6.00;99.90;;;;;;5114717;28;20313;-56
2022/02/08 04:19:45;;;;;;;12.38;8.60;;;6.00;99.90;;;;;;5112060;28;20187;-52
2022/02/08 04:33:59;;;;;;;12.60;8.27;;;6.10;99.90;;;;;;5110946;28;20222;-57
2022/02/08 04:36:41;;;;;;;15.05;10.45;;;6.10;99.90;;;;;;5110293;28;20277;-56
2022/02/08 04:39:23;;;;;;;13.77;10.32;;;6.10;99.90;;;;;;5110962;28;20233;-56
2022/02/08 04:42:01;;;;;;;13.32;10.05;;;6.10;99.90;;;;;;5110789;28;20192;-55
2022/02/08 04:44:36;;;;;;;13.10;10.00;;;6.00;99.90;;;;;;5110297;28;20194;-56
2022/02/08 04:47:11;;;;;;;14.10;10.75;;;6.00;99.90;;;;;;5110061;28;20224;-56
2022/02/08 04:49:38;;;;;;;14.77;11.40;;;5.90;99.90;;;;;;5110180;28;20229;-56
2022/02/08 04:52:08;;;;;;;15.00;9.00;;;5.90;99.90;;;;;;5110107;28;20206;-57
2022/02/08 04:54:44;;;;;;;13.27;10.38;;;5.90;99.90;;;;;;5110183;28;20195;-56
2022/02/08 04:57:19;;;;;;;14.05;10.23;;;5.90;99.90;;;;;;5110241;28;20223;-58
2022/02/08 05:00:16;;;;;;;12.02;8.95;;;5.90;99.90;;;;;;5110261;28;20188;-58
2022/02/08 05:28:28;;;;;;;8.02;6.32;;;5.90;99.90;;;;;;5102040;28;20718;-60
2022/02/08 05:36:27;;;;;;;5.30;4.80;;;6.00;99.90;;;;;;5095958;28;20218;-60
2022/02/08 05:41:47;;;;;;;5.38;4.50;;;6.00;99.90;;;;;;5096158;28;20690;-59
2022/02/08 05:44:28;;;;;;;6.35;5.22;;;6.00;99.90;;;;;;5097080;28;20199;-58
2022/02/08 05:46:57;;;;;;;7.93;5.80;;;6.00;99.90;;;;;;5097632;28;20216;-59
2022/02/08 05:49:39;;;;;;;5.97;5.32;;;6.10;99.90;;;;;;5096360;28;20266;-59
2022/02/08 05:52:33;;;;;;;5.63;5.10;;;6.10;99.90;;;;;;5096215;28;20185;-58
2022/02/08 05:55:00;;;;;;;6.20;5.60;;;6.10;99.90;;;;;;5096495;28;20275;-59
2022/02/08 05:57:27;;;;;;;6.32;5.10;;;6.10;99.90;;;;;;5097040;28;20232;-61
2022/02/08 05:59:55;;;;;;;5.95;5.32;;;6.10;99.90;;;;;;5097282;28;20207;-59
2022/02/08 06:02:23;;;;;;;6.38;5.78;;;6.10;99.90;;;;;;5097341;28;20655;-59
2022/02/08 06:04:54;;;;;;;7.63;6.18;;;6.10;99.90;;;;;;5096907;28;20200;-60
2022/02/08 06:07:33;;;;;;;9.15;6.35;;;6.10;99.90;;;;;;5096457;28;20255;-61
2022/02/08 06:10:00;;;;;;;7.25;6.20;;;6.20;99.90;;;;;;5097445;28;20192;-62
2022/02/08 06:12:27;;;;;;;7.25;6.00;;;6.20;99.90;;;;;;5097017;28;20200;-58
2022/02/08 06:15:00;;;;;;;8.63;7.15;;;6.30;99.90;;;;;;5095799;28;20232;-58
2022/02/08 06:17:29;;;;;;;7.68;6.88;;;6.30;99.90;;;;;;5095757;28;20181;-59
2022/02/08 06:19:56;;;;;;;8.20;7.20;;;6.30;99.90;;;;;;5095233;28;20207;-61
2022/02/08 06:22:24;;;;;;;8.07;7.22;;;6.40;99.90;;;;;;5099632;28;20205;-61
2022/02/08 06:24:51;;;;;;;8.68;7.88;;;6.40;99.90;;;;;;5095339;28;20307;-60
2022/02/08 06:27:18;;;;;;;8.75;7.28;;;6.40;99.90;;;;;;5094962;28;20252;-59
2022/02/08 06:29:45;;;;;;;8.93;7.28;;;6.50;99.90;;;;;;5095274;28;20224;-60
2022/02/08 06:32:12;;;;;;;9.55;8.55;;;6.50;99.90;;;;;;5094114;28;20203;-60
2022/02/08 06:34:40;;;;;;;9.98;8.30;;;6.50;99.90;;;;;;5095300;28;20207;-60
2022/02/08 06:37:11;;;;;;;9.93;8.95;;;6.60;99.90;;;;;;5094776;28;20247;-59
2022/02/08 06:39:39;;;;;;;11.13;9.77;;;6.60;99.90;;;;;;5095061;28;20199;-60
2022/02/08 06:42:08;;;;;;;10.05;9.05;;;6.60;99.90;;;;;;5095262;28;20200;-59
2022/02/08 06:44:35;;;;;;;11.10;9.43;;;6.60;99.90;;;;;;5097202;28;20637;-59
2022/02/08 06:47:03;;;;;;;12.70;10.75;;;6.70;99.90;;;;;;5097400;28;20243;-57
2022/02/08 06:49:30;;;;;;;11.57;10.38;;;6.70;99.90;;;;;;5095018;28;20326;-57
2022/02/08 06:52:01;;;;;;;13.75;12.25;;;6.70;99.90;;;;;;5094495;28;20200;-57
2022/02/08 06:54:28;;;;;;;12.48;10.93;;;6.80;99.90;;;;;;5094016;28;20192;-57
2022/02/08 06:56:55;;;;;;;16.35;10.95;;;6.80;99.90;;;;;;5094638;28;20224;-57
2022/02/08 06:59:22;;;;;;;15.13;12.10;;;6.80;99.90;;;;;;5094363;28;20660;-57
2022/02/08 07:01:49;;;;;;;17.30;13.23;;;6.80;99.90;;;;;;5094768;28;20569;-58
2022/02/08 07:04:16;;;;;;;16.02;13.27;;;6.80;99.90;;;;;;5094083;28;20200;-56
2022/02/08 07:06:45;;;;;;;18.30;12.63;;;6.90;99.90;;;;;;5094299;28;20707;-57
2022/02/08 07:09:15;;;;;;;18.20;13.25;;;6.90;99.90;;;;;;5094227;28;20220;-57
2022/02/08 07:11:46;;;;;;;22.60;13.35;;;7.00;99.90;;;;;;5094622;28;20250;-57
2022/02/08 07:14:13;;;;;;;17.27;13.02;;;7.00;99.90;;;;;;5094854;28;20569;-57
2022/02/08 07:16:40;;;;;;;16.75;13.77;;;7.00;99.90;;;;;;5094185;28;20224;-57
2022/02/08 07:19:07;;;;;;;21.45;16.05;;;7.00;99.90;;;;;;5094947;28;20199;-56
2022/02/08 07:21:45;;;;;;;21.98;15.40;;;7.10;99.90;;;;;;5098987;28;20283;-58
2022/02/08 07:24:16;;;;;;;21.75;15.07;;;7.10;99.90;;;;;;5100300;28;20200;-60
2022/02/08 07:26:46;;;;;;;19.48;15.75;;;7.10;99.90;;;;;;5100873;28;20224;-57
2022/02/08 07:29:13;;;;;;;22.60;15.15;;;7.10;99.90;;;;;;5093861;28;20593;-55
2022/02/08 07:31:48;;;;;;;19.50;14.90;;;7.20;99.90;;;;;;5094121;28;20208;-58
2022/02/08 07:34:20;;;;;;;17.65;13.57;;;7.20;99.90;;;;;;5094564;28;20219;-58
2022/02/08 07:36:54;;;;;;;22.55;15.10;;;7.20;99.90;;;;;;5093807;28;20265;-56
2022/02/08 07:39:36;;;;;;;20.55;14.43;;;7.30;99.90;;;;;;5093735;28;20274;-57
2022/02/08 07:42:04;;;;;;;19.13;14.40;;;7.30;99.90;;;;;;5093842;28;20181;-56
2022/02/08 07:44:31;;;;;;;23.40;16.25;;;7.30;99.90;;;;;;5095953;28;20206;-60
2022/02/08 07:46:58;;;;;;;22.30;15.15;;;7.30;99.90;;;;;;5093259;28;20227;-60
2022/02/08 07:49:26;;;;;;;25.60;16.83;;;7.40;99.90;;;;;;5093603;28;20247;-59
2022/02/08 07:51:53;;;;;;;17.85;14.15;;;7.40;99.90;;;;;;5093160;28;20200;-60
2022/02/08 07:54:22;;;;;;;20.17;15.80;;;7.40;99.90;;;;;;5093193;28;20207;-60
2022/02/08 07:56:49;;;;;;;20.92;15.02;;;7.50;99.90;;;;;;5095293;28;20224;-57
2022/02/08 07:59:16;;;;;;;21.77;16.20;;;7.50;99.90;;;;;;5094847;28;20207;-58
2022/02/08 08:01:43;;;;;;;22.92;15.90;;;7.50;99.90;;;;;;5093961;28;20211;-57
2022/02/08 08:04:10;;;;;;;20.90;15.80;;;7.60;99.90;;;;;;5093655;28;20204;-57
2022/02/08 08:06:38;;;;;;;21.08;15.85;;;7.60;99.90;;;;;;5094149;28;20220;-57
2022/02/08 08:09:05;;;;;;;20.98;14.75;;;7.60;99.90;;;;;;5093582;28;20227;-56
2022/02/08 08:11:37;;;;;;;21.83;16.20;;;7.70;99.90;;;;;;5093939;28;20204;-56
2022/02/08 08:14:07;;;;;;;22.83;14.70;;;7.70;99.90;;;;;;5094193;28;20556;-57
2022/02/08 08:16:46;;;;;;;20.90;15.80;;;7.80;99.90;;;;;;5093762;28;20220;-57
2022/02/08 08:19:23;;;;;;;19.88;15.57;;;7.80;99.90;;;;;;5093654;28;20184;-58
2022/02/08 08:21:50;;;;;;;23.42;15.80;;;7.80;99.90;;;;;;5095265;28;20253;-57
2022/02/08 08:24:18;;;;;;;22.55;14.32;;;7.80;99.90;;;;;;5094429;28;20200;-58
2022/02/08 08:26:47;;;;;;;20.10;15.50;;;7.80;99.90;;;;;;5094571;28;20226;-56
2022/02/08 08:29:14;;;;;;;22.05;14.00;;;7.90;99.90;;;;;;5093670;28;20219;-58
2022/02/08 08:31:41;;;;;;;24.08;15.02;;;8.00;99.90;;;;;;5100304;28;20207;-59
2022/02/08 08:34:09;;;;;;;20.40;13.60;;;8.10;99.90;;;;;;5094013;28;20204;-56
2022/02/08 08:36:36;;;;;;;22.85;14.25;;;8.20;99.90;;;;;;5093355;28;20572;-57
2022/02/08 08:39:05;;;;;;;20.35;14.57;;;8.30;99.90;;;;;;5093923;28;20660;-57
2022/02/08 08:41:37;;;;;;;20.48;14.68;;;8.30;99.90;;;;;;5093779;28;20241;-57
2022/02/08 08:44:39;;;;;;;16.63;11.23;;;8.30;99.90;;;;;;5093492;28;20189;-57
2022/02/08 08:50:04;;;;;;;20.40;15.10;;;8.40;99.90;;;;;;5093790;28;20289;-57
2022/02/08 08:52:37;;;;;;;19.63;15.27;;;8.40;99.90;;;;;;5099966;28;20226;-57
2022/02/08 08:55:05;;;;;;;23.02;15.48;;;8.40;99.90;;;;;;5095267;28;20238;-57
2022/02/08 08:57:32;;;;;;;17.50;14.00;;;8.50;99.90;;;;;;5096979;28;20252;-57
2022/02/08 09:00:02;;;;;;;20.45;15.05;;;8.60;99.90;;;;;;5097349;28;20200;-58
2022/02/08 09:02:29;;;;;;;20.23;15.23;;;8.60;99.90;;;;;;5099891;28;20679;-58
2022/02/08 09:04:56;;;;;;;19.48;14.02;;;8.70;99.90;;;;;;5098227;28;20212;-57
2022/02/08 09:07:24;;;;;;;21.17;14.32;;;8.70;99.90;;;;;;5097162;28;20220;-57
2022/02/08 09:09:56;;;;;;;17.98;14.65;;;8.80;99.90;;;;;;5097113;28;20213;-58
2022/02/08 09:12:38;;;;;;;20.85;14.55;;;8.80;99.90;;;;;;5096519;28;20295;-56
2022/02/08 09:15:24;;;;;;;15.70;12.82;;;8.80;99.90;;;;;;5096892;28;20192;-58
2022/02/08 09:18:18;;;;;;;18.05;13.40;;;8.90;99.90;;;;;;5096578;28;20249;-57
2022/02/08 09:21:16;;;;;;;20.55;14.57;;;8.90;99.90;;;;;;5097265;28;20211;-58
2022/02/08 09:24:14;;;;;;;19.42;15.60;;;8.90;99.90;;;;;;5097291;28;20280;-57
2022/02/08 09:29:37;;;;;;;23.23;14.65;;;9.00;99.90;;;;;;5097273;28;20227;-56
2022/02/08 09:32:14;;;;;;;19.27;12.57;;;9.10;99.90;;;;;;5096732;28;20192;-57
2022/02/08 09:34:43;;;;;;;19.38;13.00;;;9.20;99.90;;;;;;5096474;28;20267;-57
2022/02/08 09:37:11;;;;;;;15.25;12.07;;;9.20;99.90;;;;;;5096528;28;20223;-57
2022/02/08 09:39:39;;;;;;;17.98;11.43;;;9.30;99.90;;;;;;5096790;28;20196;-56
2022/02/08 09:42:07;;;;;;;18.85;12.18;;;9.30;99.90;;;;;;5096216;28;20204;-55
2022/02/08 09:44:36;;;;;;;20.73;13.18;;;9.40;99.90;;;;;;5096289;28;20228;-57
2022/02/08 09:47:10;;;;;;;15.00;10.90;;;9.40;99.90;;;;;;5096309;28;20314;-57
2022/02/08 09:49:41;;;;;;;16.00;11.88;;;9.40;99.90;;;;;;5095300;28;20459;-57
2022/02/08 09:52:10;;;;;;;16.60;11.20;;;9.50;99.90;;;;;;5095304;28;20191;-57
2022/02/08 09:54:37;;;;;;;14.10;10.30;;;9.50;99.90;;;;;;5095362;28;20534;-57
2022/02/08 09:57:05;;;;;;;15.60;11.27;;;9.50;99.90;;;;;;5095324;28;20470;-56
2022/02/08 09:59:34;;;;;;;16.00;11.07;;;9.50;99.90;;;;;;5096080;28;20450;-57
2022/02/08 10:02:02;;;;;;;17.10;12.07;;;9.50;99.90;;;;;;5095256;28;20555;-57
2022/02/08 10:04:30;;;;;;;19.03;11.87;;;9.50;99.90;;;;;;5095170;28;20207;-57
2022/02/08 10:07:10;;;;;;;14.17;10.80;;;9.60;99.90;;;;;;5095192;28;20473;-57
2022/02/08 10:09:37;;;;;;;11.48;9.63;;;9.70;99.90;;;;;;5096916;28;20531;-56
2022/02/08 10:12:04;;;;;;;15.07;9.87;;;9.80;99.90;;;;;;5098853;28;20219;-56
2022/02/08 10:14:53;;;;;;;11.30;9.10;;;9.90;99.90;;;;;;5100953;28;20445;-54
2022/02/08 10:23:03;;;;;;;14.40;8.85;;;10.00;99.90;;;;;;5038387;28;20849;-57
2022/02/08 10:25:44;;;;;;;12.47;8.10;;;10.00;99.90;;;;;;5094662;28;20707;-57
2022/02/08 10:28:15;;;;;;;12.23;7.83;;;10.10;99.90;;;;;;5094738;28;20426;-56
2022/02/08 10:31:08;;;;;;;13.03;8.60;;;10.20;99.90;;;;;;5095661;28;20527;-60
2022/02/08 10:39:07;;;;;;;9.83;7.47;;;10.20;99.90;;;;;;5095144;28;20874;-57
2022/02/08 10:41:34;;;;;;;11.00;8.50;;;10.20;99.90;;;;;;5095727;28;20447;-57
2022/02/08 10:44:06;;;;;;;12.67;8.40;;;10.10;99.90;;;;;;5095609;28;20481;-57
2022/02/08 10:46:34;;;;;;;13.70;7.73;;;10.10;99.90;;;;;;5095150;28;20505;-57
2022/02/08 10:49:02;;;;;;;9.93;8.47;;;10.10;99.90;;;;;;5095109;28;20480;-59
2022/02/08 10:51:35;;;;;;;14.20;6.93;;;10.10;99.90;;;;;;5095073;28;20438;-58
2022/02/08 10:54:09;;;;;;;11.40;7.30;;;10.10;99.90;;;;;;5094825;28;20427;-57
2022/02/08 10:56:39;;;;;;;9.00;7.73;;;10.10;99.90;;;;;;5094915;28;20566;-58
2022/02/08 10:59:16;;;;;;;12.73;7.90;;;10.10;99.90;;;;;;5094315;28;20797;-57
2022/02/08 11:01:52;;;;;;;9.83;8.20;;;10.10;99.90;;;;;;5094559;28;20434;-57
2022/02/08 11:04:25;;;;;;;12.93;7.88;;;10.10;99.90;;;;;;5094363;28;20422;-57
2022/02/08 11:07:13;;;;;;;13.70;7.97;;;10.10;99.90;;;;;;5094481;28;20229;-56
2022/02/08 11:09:49;;;;;;;8.43;7.60;;;10.10;99.90;;;;;;5093956;28;20479;-58
2022/02/08 11:12:42;;;;;;;10.57;7.33;;;10.20;99.90;;;;;;5093757;28;20234;-58
2022/02/08 11:15:23;;;;;;;12.63;7.47;;;10.30;99.90;;;;;;5093558;28;20537;-57
2022/02/08 11:20:39;;;;;;;11.50;7.10;;;10.30;99.90;;;;;;5093549;28;20402;-60
2022/02/08 11:23:19;;;;;;;12.03;7.43;;;10.30;99.90;;;;;;5093514;28;20433;-61
2022/02/08 11:25:49;;;;;;;9.37;6.63;;;10.30;99.90;;;;;;5093626;28;20489;-60
2022/02/08 11:28:24;;;;;;;9.17;6.70;;;10.30;99.90;;;;;;5093539;28;20794;-60
2022/02/08 11:31:05;;;;;;;9.90;7.77;;;10.30;99.90;;;;;;5093505;28;20462;-59
2022/02/08 11:33:48;;;;;;;9.10;6.60;;;10.30;99.90;;;;;;5093372;28;20433;-60
2022/02/08 11:44:53;;;;;;;11.83;7.70;;;10.20;99.90;;;;;;5048958;28;20521;-60
2022/02/08 11:47:35;;;;;;;9.40;7.00;;;10.20;99.90;;;;;;5093200;28;20468;-59
2022/02/08 11:50:21;;;;;;;12.00;7.17;;;10.20;99.90;;;;;;5093155;28;20605;-58
2022/02/08 11:53:08;;;;;;;12.13;6.90;;;10.20;99.90;;;;;;5092837;28;20536;-61
2022/02/08 11:55:51;;;;;;;11.73;7.23;;;10.20;99.90;;;;;;5092678;28;20523;-60
2022/02/08 11:58:28;;;;;;;12.10;7.00;;;10.30;99.90;;;;;;5093979;28;20435;-61
2022/02/08 12:01:04;;;;;;;9.53;6.87;;;10.30;99.90;;;;;;5093788;28;20514;-61
2022/02/08 12:09:19;;;;;;;10.40;7.27;;;10.30;99.90;;;;;;5056605;28;20560;-60
2022/02/08 12:12:08;;;;;;;12.33;6.30;;;10.30;99.90;;;;;;5093178;28;20928;-60
2022/02/08 12:29:20;;;;;;;10.23;6.43;;;10.40;99.90;;;;;;5094113;28;20192;-61
2022/02/08 12:31:53;;;;;;;10.43;6.50;;;10.30;99.90;;;;;;5097803;28;20917;-61
2022/02/08 12:56:51;;;;;;;7.20;5.60;;;10.40;99.90;;;;;;5091019;28;20218;-61
2022/02/08 12:59:43;;;;;;;12.30;5.73;;;10.50;99.90;;;;;;5096604;28;20418;-60
2022/02/08 13:05:34;;;;;;;10.50;5.20;;;10.50;99.90;;;;;;5093028;28;20828;-61
2022/02/08 14:03:56;;;;;;;11.30;7.55;;;10.00;99.90;;;;;;5096430;28;20782;-57
2022/02/08 14:06:25;;;;;;;10.60;7.23;;;9.90;99.90;;;;;;5095808;28;20303;-57
2022/02/08 14:09:04;;;;;;;9.30;6.73;;;9.90;99.90;;;;;;5096083;28;20464;-55
2022/02/08 14:14:32;;;;;;;9.73;7.67;;;9.80;99.90;;;;;;5095754;28;20187;-56
2022/02/08 14:19:49;;;;;;;10.27;7.47;;;9.80;99.90;;;;;;5085092;28;20203;-57
2022/02/08 14:22:33;;;;;;;9.85;7.93;;;9.80;99.90;;;;;;5096064;28;20517;-59
2022/02/08 14:25:20;;;;;;;11.23;8.40;;;9.80;99.90;;;;;;5099549;28;20664;-56
2022/02/08 14:30:39;;;;;;;10.00;6.60;;;9.80;99.90;;;;;;5096050;28;20304;-58
2022/02/08 14:33:23;;;;;;;8.60;7.70;;;9.80;99.90;;;;;;5095468;28;20198;-58
2022/02/08 14:36:09;;;;;;;10.07;6.65;;;9.80;99.90;;;;;;5095606;28;20466;-58
2022/02/08 14:57:33;;;;;;;15.18;7.47;;;9.80;99.90;;;;;;5094448;28;20187;-56
2022/02/08 15:06:53;;;;;;;8.85;6.90;;;9.90;99.90;;;;;;5094932;28;20219;-58
2022/02/08 15:09:24;;;;;;;8.77;7.10;;;9.90;99.90;;;;;;5096428;28;20254;-59
2022/02/08 15:12:06;;;;;;;8.68;7.82;;;9.90;99.90;;;;;;5096407;28;20851;-61
2022/02/08 15:14:39;;;;;;;9.25;6.53;;;9.90;99.90;;;;;;5094396;28;20189;-61
2022/02/08 15:17:06;;;;;;;7.80;6.43;;;9.90;99.90;;;;;;5094325;28;20220;-60
2022/02/08 15:19:34;;;;;;;8.15;6.97;;;9.90;99.90;;;;;;5094037;28;20211;-60
2022/02/08 15:22:03;;;;;;;7.07;6.28;;;10.00;99.90;;;;;;5094038;28;20211;-61
2022/02/08 15:24:30;;;;;;;10.88;6.85;;;10.00;99.90;;;;;;5094273;28;20289;-60
2022/02/08 15:26:57;;;;;;;7.10;6.25;;;10.00;99.90;;;;;;5093965;28;20231;-61
2022/02/08 15:29:27;;;;;;;6.67;6.07;;;10.00;99.90;;;;;;5094113;28;20208;-60
2022/02/08 15:31:55;;;;;;;10.18;6.85;;;10.00;99.90;;;;;;5093207;28;20517;-61
2022/02/08 15:34:23;;;;;;;11.02;7.05;;;9.90;99.90;;;;;;5093738;28;20204;-60
2022/02/08 15:36:52;;;;;;;8.07;6.60;;;9.90;99.90;;;;;;5093567;28;20246;-59
2022/02/08 15:39:19;;;;;;;7.80;6.45;;;9.90;99.90;;;;;;5093862;28;20200;-61
2022/02/08 15:41:46;;;;;;;6.90;6.30;;;9.90;99.90;;;;;;5093755;28;20199;-62
2022/02/08 15:44:18;;;;;;;7.80;7.00;;;9.90;99.90;;;;;;5093955;28;20204;-61
2022/02/08 15:46:46;;;;;;;8.90;6.85;;;9.90;99.90;;;;;;5093512;28;20224;-60
2022/02/08 15:49:16;;;;;;;7.82;7.03;;;9.90;99.90;;;;;;5094516;28;20299;-60
2022/02/08 15:51:45;;;;;;;7.97;7.03;;;9.90;99.90;;;;;;5094240;28;20275;-61
2022/02/08 15:54:21;;;;;;;9.90;7.60;;;9.90;99.90;;;;;;5094225;28;20286;-60
2022/02/08 16:05:37;;;;;;;9.30;6.90;;;9.90;99.90;;;;;;5030797;28;20491;-61
2022/02/08 16:08:12;;;;;;;9.53;7.47;;;9.90;99.90;;;;;;5074202;28;20481;-61
2022/02/08 16:10:49;;;;;;;7.45;6.65;;;9.90;99.90;;;;;;5093302;28;20478;-62
2022/02/08 16:13:27;;;;;;;7.00;6.28;;;9.90;99.90;;;;;;5093122;28;20196;-60
2022/02/08 16:16:13;;;;;;;7.90;7.10;;;9.90;99.90;;;;;;5093205;28;20285;-62
2022/02/08 16:18:48;;;;;;;7.18;6.47;;;9.90;99.90;;;;;;5093212;28;20184;-62
2022/02/08 16:24:28;;;;;;;8.37;7.27;;;9.90;99.90;;;;;;5077214;28;20655;-60
2022/02/08 16:27:13;;;;;;;8.60;7.07;;;9.90;99.90;;;;;;5099529;28;20466;-62
2022/02/08 16:32:44;;;;;;;8.20;7.05;;;9.90;99.90;;;;;;5091673;28;20204;-63
2022/02/08 16:47:00;;;;;;;7.82;7.13;;;9.90;99.90;;;;;;5093252;28;20719;-61
2022/02/08 16:49:45;;;;;;;9.85;7.20;;;9.90;99.90;;;;;;5094413;28;20220;-58
2022/02/08 16:52:45;;;;;;;7.80;6.70;;;9.80;99.90;;;;;;5093727;28;20228;-58
2022/02/08 16:55:28;;;;;;;7.53;6.88;;;9.80;99.90;;;;;;5093258;28;20431;-58
2022/02/08 16:58:08;;;;;;;8.43;7.73;;;9.80;99.90;;;;;;5093359;28;20680;-59
2022/02/08 17:00:37;;;;;;;11.02;7.97;;;9.80;99.90;;;;;;5093945;28;20459;-59
2022/02/08 17:03:07;;;;;;;9.63;8.02;;;9.70;99.90;;;;;;5092754;28;20208;-59
2022/02/08 17:05:34;;;;;;;8.23;7.53;;;9.70;99.90;;;;;;5092674;28;20637;-59
2022/02/08 17:08:02;;;;;;;11.02;8.90;;;9.70;99.90;;;;;;5094072;28;20454;-59
2022/02/08 17:10:34;;;;;;;9.48;8.60;;;9.70;99.90;;;;;;5094534;28;20231;-57
2022/02/08 17:13:18;;;;;;;10.80;9.68;;;9.70;99.90;;;;;;5093069;28;20199;-58
2022/02/08 17:15:55;;;;;;;10.73;9.68;;;9.60;99.90;;;;;;5094631;28;20220;-58
2022/02/08 17:18:52;;;;;;;11.48;10.38;;;9.60;99.90;;;;;;5096716;28;20267;-58
2022/02/08 17:46:25;;;;;;;11.88;10.68;;;9.50;99.90;;;;;;5097985;28;20222;-58
2022/02/08 17:48:52;;;;;;;14.32;11.00;;;9.60;99.90;;;;;;5097501;28;20295;-58
2022/02/08 17:51:19;;;;;;;12.07;10.98;;;9.60;99.90;;;;;;5097549;28;20251;-58